sensor_id;sensor_type;location;lat;lon;timestamp;P1;durP1;ratioP1;P2;durP2;ratioP2
8532;SDS011;4304;53.876;10.662;2023-01-01T00:02:20;22.02;;;10.70;;
8532;SDS011;4304;53.876;10.662;2023-01-01T00:04:45;22.13;;;10.35;;
8532;SDS011;4304;53.876;10.662;2023-01-01T00:07:10;20.80;;;10.27;;
8532;SDS011;4304;53.876;10.662;2023-01-01T00:09:35;20.10;;;10.48;;
8532;SDS011;4304;53.876;10.662;2023-01-01T00:12:01;18.55;;;10.40;;
8532;SDS011;4304;53.876;10.662;2023-01-01T00:14:30;22.55;;;10.20;;
8532;SDS011;4304;53.876;10.662;2023-01-01T00:16:58;20.83;;;10.32;;
8532;SDS011;4304;53.876;10.662;2023-01-01T00:19:23;22.98;;;10.70;;
8532;SDS011;4304;53.876;10.662;2023-01-01T00:21:48;13.45;;;8.80;;
8532;SDS011;4304;53.876;10.662;2023-01-01T00:24:14;24.88;;;10.15;;
8532;SDS011;4304;53.876;10.662;2023-01-01T00:26:39;16.02;;;8.25;;
8532;SDS011;4304;53.876;10.662;2023-01-01T00:29:04;13.50;;;8.77;;
8532;SDS011;4304;53.876;10.662;2023-01-01T00:31:30;16.45;;;8.95;;
8532;SDS011;4304;53.876;10.662;2023-01-01T00:33:55;23.10;;;7.10;;
8532;SDS011;4304;53.876;10.662;2023-01-01T00:36:21;14.02;;;7.38;;
8532;SDS011;4304;53.876;10.662;2023-01-01T00:38:47;10.40;;;5.32;;
8532;SDS011;4304;53.876;10.662;2023-01-01T00:41:13;10.95;;;6.28;;
8532;SDS011;4304;53.876;10.662;2023-01-01T00:43:39;11.65;;;5.80;;
8532;SDS011;4304;53.876;10.662;2023-01-01T00:46:05;12.27;;;5.82;;
8532;SDS011;4304;53.876;10.662;2023-01-01T00:48:31;8.52;;;4.82;;
8532;SDS011;4304;53.876;10.662;2023-01-01T00:50:57;9.85;;;4.72;;
8532;SDS011;4304;53.876;10.662;2023-01-01T00:53:22;12.30;;;5.10;;
8532;SDS011;4304;53.876;10.662;2023-01-01T00:55:50;12.50;;;4.15;;
8532;SDS011;4304;53.876;10.662;2023-01-01T00:58:16;10.60;;;4.00;;
8532;SDS011;4304;53.876;10.662;2023-01-01T01:00:42;10.15;;;4.55;;
8532;SDS011;4304;53.876;10.662;2023-01-01T01:03:11;6.90;;;3.90;;
8532;SDS011;4304;53.876;10.662;2023-01-01T01:05:37;13.30;;;3.92;;
8532;SDS011;4304;53.876;10.662;2023-01-01T01:08:03;12.20;;;3.97;;
8532;SDS011;4304;53.876;10.662;2023-01-01T01:10:28;8.57;;;3.45;;
8532;SDS011;4304;53.876;10.662;2023-01-01T01:12:54;7.95;;;3.63;;
8532;SDS011;4304;53.876;10.662;2023-01-01T01:15:19;9.43;;;3.67;;
8532;SDS011;4304;53.876;10.662;2023-01-01T01:17:45;15.85;;;3.95;;
8532;SDS011;4304;53.876;10.662;2023-01-01T01:20:10;13.30;;;4.05;;
8532;SDS011;4304;53.876;10.662;2023-01-01T01:22:36;8.07;;;3.85;;
8532;SDS011;4304;53.876;10.662;2023-01-01T01:25:02;10.73;;;3.80;;
8532;SDS011;4304;53.876;10.662;2023-01-01T01:27:27;7.53;;;4.15;;
8532;SDS011;4304;53.876;10.662;2023-01-01T01:29:53;13.05;;;4.38;;
8532;SDS011;4304;53.876;10.662;2023-01-01T01:32:18;9.93;;;4.28;;
8532;SDS011;4304;53.876;10.662;2023-01-01T01:34:44;9.50;;;3.83;;
8532;SDS011;4304;53.876;10.662;2023-01-01T01:37:10;9.98;;;4.28;;
8532;SDS011;4304;53.876;10.662;2023-01-01T01:39:38;8.40;;;3.65;;
8532;SDS011;4304;53.876;10.662;2023-01-01T01:42:04;9.70;;;3.70;;
8532;SDS011;4304;53.876;10.662;2023-01-01T01:47:14;11.00;;;3.40;;
8532;SDS011;4304;53.876;10.662;2023-01-01T01:49:41;9.38;;;3.58;;
8532;SDS011;4304;53.876;10.662;2023-01-01T01:52:08;8.82;;;3.42;;
8532;SDS011;4304;53.876;10.662;2023-01-01T01:54:34;5.68;;;3.17;;
8532;SDS011;4304;53.876;10.662;2023-01-01T01:57:00;14.38;;;3.60;;
8532;SDS011;4304;53.876;10.662;2023-01-01T01:59:30;14.32;;;3.35;;
8532;SDS011;4304;53.876;10.662;2023-01-01T02:01:57;10.02;;;3.40;;
8532;SDS011;4304;53.876;10.662;2023-01-01T02:04:24;8.02;;;3.10;;
8532;SDS011;4304;53.876;10.662;2023-01-01T02:06:50;8.20;;;3.03;;
8532;SDS011;4304;53.876;10.662;2023-01-01T02:09:16;6.40;;;3.10;;
8532;SDS011;4304;53.876;10.662;2023-01-01T02:11:41;13.57;;;3.28;;
8532;SDS011;4304;53.876;10.662;2023-01-01T02:14:06;7.88;;;2.83;;
8532;SDS011;4304;53.876;10.662;2023-01-01T02:16:35;7.05;;;3.33;;
8532;SDS011;4304;53.876;10.662;2023-01-01T02:27:51;10.57;;;2.97;;
8532;SDS011;4304;53.876;10.662;2023-01-01T02:30:24;5.68;;;2.80;;
8532;SDS011;4304;53.876;10.662;2023-01-01T02:32:53;9.65;;;3.10;;
8532;SDS011;4304;53.876;10.662;2023-01-01T02:35:29;15.63;;;3.38;;
8532;SDS011;4304;53.876;10.662;2023-01-01T02:40:31;6.00;;;2.80;;
8532;SDS011;4304;53.876;10.662;2023-01-01T02:42:59;7.05;;;3.03;;
8532;SDS011;4304;53.876;10.662;2023-01-01T02:45:28;10.10;;;2.60;;
8532;SDS011;4304;53.876;10.662;2023-01-01T02:47:53;9.45;;;3.08;;
8532;SDS011;4304;53.876;10.662;2023-01-01T02:50:21;6.03;;;2.90;;
8532;SDS011;4304;53.876;10.662;2023-01-01T02:58:33;8.80;;;3.13;;
8532;SDS011;4304;53.876;10.662;2023-01-01T03:07:16;5.85;;;2.97;;
8532;SDS011;4304;53.876;10.662;2023-01-01T03:09:56;10.77;;;3.25;;
8532;SDS011;4304;53.876;10.662;2023-01-01T03:12:34;11.23;;;3.30;;
8532;SDS011;4304;53.876;10.662;2023-01-01T03:18:02;6.07;;;2.78;;
8532;SDS011;4304;53.876;10.662;2023-01-01T03:20:31;7.88;;;3.35;;
8532;SDS011;4304;53.876;10.662;2023-01-01T03:23:01;7.65;;;3.47;;
8532;SDS011;4304;53.876;10.662;2023-01-01T03:25:38;5.30;;;2.80;;
8532;SDS011;4304;53.876;10.662;2023-01-01T03:28:10;8.50;;;3.13;;
8532;SDS011;4304;53.876;10.662;2023-01-01T03:30:38;10.23;;;3.22;;
8532;SDS011;4304;53.876;10.662;2023-01-01T03:33:07;7.55;;;3.30;;
8532;SDS011;4304;53.876;10.662;2023-01-01T03:38:23;12.55;;;3.65;;
8532;SDS011;4304;53.876;10.662;2023-01-01T03:41:02;7.10;;;3.10;;
8532;SDS011;4304;53.876;10.662;2023-01-01T03:46:09;7.93;;;3.53;;
8532;SDS011;4304;53.876;10.662;2023-01-01T03:48:38;8.18;;;3.17;;
8532;SDS011;4304;53.876;10.662;2023-01-01T04:01:43;9.57;;;3.63;;
8532;SDS011;4304;53.876;10.662;2023-01-01T04:04:12;8.23;;;3.58;;
8532;SDS011;4304;53.876;10.662;2023-01-01T04:06:39;13.50;;;4.00;;
8532;SDS011;4304;53.876;10.662;2023-01-01T04:09:06;9.07;;;3.92;;
8532;SDS011;4304;53.876;10.662;2023-01-01T04:11:36;7.28;;;3.80;;
8532;SDS011;4304;53.876;10.662;2023-01-01T04:14:05;12.68;;;3.95;;
8532;SDS011;4304;53.876;10.662;2023-01-01T04:16:31;15.20;;;4.10;;
8532;SDS011;4304;53.876;10.662;2023-01-01T04:18:56;7.13;;;4.40;;
8532;SDS011;4304;53.876;10.662;2023-01-01T04:21:31;10.43;;;3.58;;
8532;SDS011;4304;53.876;10.662;2023-01-01T04:23:57;8.02;;;3.60;;
8532;SDS011;4304;53.876;10.662;2023-01-01T04:26:22;10.63;;;4.10;;
8532;SDS011;4304;53.876;10.662;2023-01-01T04:28:47;7.28;;;3.58;;
8532;SDS011;4304;53.876;10.662;2023-01-01T04:31:12;10.60;;;4.38;;
8532;SDS011;4304;53.876;10.662;2023-01-01T04:33:38;8.95;;;4.53;;
8532;SDS011;4304;53.876;10.662;2023-01-01T04:36:06;9.60;;;4.35;;
8532;SDS011;4304;53.876;10.662;2023-01-01T04:38:33;14.48;;;4.72;;
8532;SDS011;4304;53.876;10.662;2023-01-01T04:40:59;8.07;;;4.20;;
8532;SDS011;4304;53.876;10.662;2023-01-01T04:43:33;10.88;;;4.63;;
8532;SDS011;4304;53.876;10.662;2023-01-01T04:45:59;11.48;;;5.15;;
8532;SDS011;4304;53.876;10.662;2023-01-01T04:48:26;9.20;;;4.60;;
8532;SDS011;4304;53.876;10.662;2023-01-01T04:50:56;12.10;;;5.03;;
8532;SDS011;4304;53.876;10.662;2023-01-01T04:53:23;12.15;;;5.28;;
8532;SDS011;4304;53.876;10.662;2023-01-01T04:55:50;9.30;;;4.72;;
8532;SDS011;4304;53.876;10.662;2023-01-01T04:58:15;17.45;;;4.70;;
8532;SDS011;4304;53.876;10.662;2023-01-01T05:00:41;7.10;;;3.78;;
8532;SDS011;4304;53.876;10.662;2023-01-01T05:03:06;8.45;;;4.07;;
8532;SDS011;4304;53.876;10.662;2023-01-01T05:05:31;10.25;;;4.22;;
8532;SDS011;4304;53.876;10.662;2023-01-01T05:07:57;7.00;;;3.92;;
8532;SDS011;4304;53.876;10.662;2023-01-01T05:10:22;11.52;;;4.13;;
8532;SDS011;4304;53.876;10.662;2023-01-01T05:12:47;13.52;;;4.22;;
8532;SDS011;4304;53.876;10.662;2023-01-01T05:15:12;7.82;;;3.47;;
8532;SDS011;4304;53.876;10.662;2023-01-01T05:17:38;10.27;;;4.07;;
8532;SDS011;4304;53.876;10.662;2023-01-01T05:20:03;10.25;;;3.97;;
8532;SDS011;4304;53.876;10.662;2023-01-01T05:22:29;12.20;;;3.88;;
8532;SDS011;4304;53.876;10.662;2023-01-01T05:24:54;10.77;;;3.40;;
8532;SDS011;4304;53.876;10.662;2023-01-01T05:27:22;8.07;;;3.65;;
8532;SDS011;4304;53.876;10.662;2023-01-01T05:29:47;7.57;;;3.40;;
8532;SDS011;4304;53.876;10.662;2023-01-01T05:32:12;4.97;;;2.80;;
8532;SDS011;4304;53.876;10.662;2023-01-01T05:34:38;5.47;;;3.30;;
8532;SDS011;4304;53.876;10.662;2023-01-01T05:37:03;9.40;;;3.17;;
8532;SDS011;4304;53.876;10.662;2023-01-01T05:39:28;8.63;;;2.85;;
8532;SDS011;4304;53.876;10.662;2023-01-01T05:41:53;7.55;;;3.03;;
8532;SDS011;4304;53.876;10.662;2023-01-01T05:44:18;6.72;;;3.33;;
8532;SDS011;4304;53.876;10.662;2023-01-01T05:46:44;10.32;;;3.20;;
8532;SDS011;4304;53.876;10.662;2023-01-01T05:49:10;8.05;;;2.97;;
8532;SDS011;4304;53.876;10.662;2023-01-01T05:51:36;8.80;;;2.80;;
8532;SDS011;4304;53.876;10.662;2023-01-01T05:54:01;4.53;;;2.80;;
8532;SDS011;4304;53.876;10.662;2023-01-01T05:56:27;8.30;;;3.20;;
8532;SDS011;4304;53.876;10.662;2023-01-01T05:58:53;8.02;;;3.25;;
8532;SDS011;4304;53.876;10.662;2023-01-01T06:01:28;7.68;;;2.55;;
8532;SDS011;4304;53.876;10.662;2023-01-01T06:03:54;6.63;;;2.42;;
8532;SDS011;4304;53.876;10.662;2023-01-01T06:06:27;4.78;;;2.50;;
8532;SDS011;4304;53.876;10.662;2023-01-01T06:08:55;5.57;;;2.40;;
8532;SDS011;4304;53.876;10.662;2023-01-01T06:11:22;5.65;;;2.33;;
8532;SDS011;4304;53.876;10.662;2023-01-01T06:13:50;4.80;;;2.40;;
8532;SDS011;4304;53.876;10.662;2023-01-01T06:16:16;4.55;;;2.20;;
8532;SDS011;4304;53.876;10.662;2023-01-01T06:18:41;4.43;;;2.20;;
8532;SDS011;4304;53.876;10.662;2023-01-01T06:21:14;6.13;;;2.35;;
8532;SDS011;4304;53.876;10.662;2023-01-01T06:23:53;7.15;;;2.38;;
8532;SDS011;4304;53.876;10.662;2023-01-01T06:26:24;8.68;;;2.30;;
8532;SDS011;4304;53.876;10.662;2023-01-01T06:28:51;7.90;;;2.30;;
8532;SDS011;4304;53.876;10.662;2023-01-01T06:31:25;8.00;;;2.30;;
8532;SDS011;4304;53.876;10.662;2023-01-01T06:33:51;6.97;;;2.50;;
8532;SDS011;4304;53.876;10.662;2023-01-01T06:36:17;5.15;;;1.90;;
8532;SDS011;4304;53.876;10.662;2023-01-01T06:38:45;7.65;;;2.65;;
8532;SDS011;4304;53.876;10.662;2023-01-01T06:41:13;8.25;;;2.28;;
8532;SDS011;4304;53.876;10.662;2023-01-01T06:43:40;7.85;;;2.40;;
8532;SDS011;4304;53.876;10.662;2023-01-01T06:48:35;4.93;;;2.22;;
8532;SDS011;4304;53.876;10.662;2023-01-01T06:51:07;6.45;;;2.13;;
8532;SDS011;4304;53.876;10.662;2023-01-01T06:53:33;5.72;;;2.30;;
8532;SDS011;4304;53.876;10.662;2023-01-01T06:55:59;6.18;;;2.20;;
8532;SDS011;4304;53.876;10.662;2023-01-01T06:58:37;8.48;;;2.00;;
8532;SDS011;4304;53.876;10.662;2023-01-01T07:01:06;6.15;;;2.50;;
8532;SDS011;4304;53.876;10.662;2023-01-01T07:03:34;4.05;;;2.30;;
8532;SDS011;4304;53.876;10.662;2023-01-01T07:06:00;8.00;;;2.85;;
8532;SDS011;4304;53.876;10.662;2023-01-01T07:08:25;4.68;;;2.42;;
8532;SDS011;4304;53.876;10.662;2023-01-01T07:10:53;4.93;;;2.25;;
8532;SDS011;4304;53.876;10.662;2023-01-01T07:13:18;8.32;;;2.30;;
8532;SDS011;4304;53.876;10.662;2023-01-01T07:15:43;8.27;;;2.92;;
8532;SDS011;4304;53.876;10.662;2023-01-01T07:18:09;6.90;;;2.38;;
8532;SDS011;4304;53.876;10.662;2023-01-01T07:20:34;6.03;;;2.33;;
8532;SDS011;4304;53.876;10.662;2023-01-01T07:22:59;8.13;;;2.70;;
8532;SDS011;4304;53.876;10.662;2023-01-01T07:25:24;5.80;;;2.50;;
8532;SDS011;4304;53.876;10.662;2023-01-01T07:27:50;7.35;;;2.38;;
8532;SDS011;4304;53.876;10.662;2023-01-01T07:30:15;5.40;;;2.25;;
8532;SDS011;4304;53.876;10.662;2023-01-01T07:32:41;4.68;;;2.10;;
8532;SDS011;4304;53.876;10.662;2023-01-01T07:35:07;4.53;;;2.10;;
8532;SDS011;4304;53.876;10.662;2023-01-01T07:37:32;7.53;;;2.35;;
8532;SDS011;4304;53.876;10.662;2023-01-01T07:39:59;4.78;;;2.20;;
8532;SDS011;4304;53.876;10.662;2023-01-01T07:42:24;3.10;;;1.92;;
8532;SDS011;4304;53.876;10.662;2023-01-01T07:44:49;5.72;;;2.40;;
8532;SDS011;4304;53.876;10.662;2023-01-01T07:47:23;8.82;;;2.40;;
8532;SDS011;4304;53.876;10.662;2023-01-01T07:49:50;6.30;;;2.00;;
8532;SDS011;4304;53.876;10.662;2023-01-01T07:52:16;5.68;;;2.00;;
8532;SDS011;4304;53.876;10.662;2023-01-01T07:54:48;5.20;;;2.55;;
8532;SDS011;4304;53.876;10.662;2023-01-01T07:57:14;8.07;;;1.95;;
8532;SDS011;4304;53.876;10.662;2023-01-01T07:59:39;4.20;;;2.00;;
8532;SDS011;4304;53.876;10.662;2023-01-01T08:02:04;5.97;;;2.13;;
8532;SDS011;4304;53.876;10.662;2023-01-01T08:04:36;5.78;;;2.10;;
8532;SDS011;4304;53.876;10.662;2023-01-01T08:07:14;5.80;;;1.90;;
8532;SDS011;4304;53.876;10.662;2023-01-01T08:09:46;5.18;;;1.90;;
8532;SDS011;4304;53.876;10.662;2023-01-01T08:12:17;4.50;;;2.00;;
8532;SDS011;4304;53.876;10.662;2023-01-01T08:14:44;10.50;;;2.20;;
8532;SDS011;4304;53.876;10.662;2023-01-01T08:17:16;5.03;;;1.73;;
8532;SDS011;4304;53.876;10.662;2023-01-01T08:19:51;4.00;;;1.60;;
8532;SDS011;4304;53.876;10.662;2023-01-01T08:22:17;7.40;;;1.83;;
8532;SDS011;4304;53.876;10.662;2023-01-01T08:24:46;3.65;;;1.60;;
8532;SDS011;4304;53.876;10.662;2023-01-01T08:27:12;8.35;;;2.40;;
8532;SDS011;4304;53.876;10.662;2023-01-01T08:29:46;6.22;;;1.92;;
8532;SDS011;4304;53.876;10.662;2023-01-01T08:32:19;4.38;;;1.38;;
8532;SDS011;4304;53.876;10.662;2023-01-01T08:37:12;4.53;;;1.60;;
8532;SDS011;4304;53.876;10.662;2023-01-01T08:39:38;4.43;;;1.58;;
8532;SDS011;4304;53.876;10.662;2023-01-01T08:42:03;3.83;;;1.50;;
8532;SDS011;4304;53.876;10.662;2023-01-01T08:44:29;6.18;;;1.60;;
8532;SDS011;4304;53.876;10.662;2023-01-01T08:46:54;2.50;;;1.55;;
8532;SDS011;4304;53.876;10.662;2023-01-01T08:49:19;5.10;;;1.60;;
8532;SDS011;4304;53.876;10.662;2023-01-01T08:51:45;4.47;;;1.30;;
8532;SDS011;4304;53.876;10.662;2023-01-01T08:54:10;2.85;;;1.40;;
8532;SDS011;4304;53.876;10.662;2023-01-01T08:56:35;1.63;;;1.00;;
8532;SDS011;4304;53.876;10.662;2023-01-01T08:59:01;2.22;;;1.08;;
8532;SDS011;4304;53.876;10.662;2023-01-01T09:01:26;2.15;;;0.82;;
8532;SDS011;4304;53.876;10.662;2023-01-01T09:03:51;3.97;;;1.38;;
8532;SDS011;4304;53.876;10.662;2023-01-01T09:06:17;3.85;;;1.17;;
8532;SDS011;4304;53.876;10.662;2023-01-01T09:08:49;3.55;;;1.02;;
8532;SDS011;4304;53.876;10.662;2023-01-01T09:11:25;2.17;;;1.05;;
8532;SDS011;4304;53.876;10.662;2023-01-01T09:13:52;3.75;;;1.45;;
8532;SDS011;4304;53.876;10.662;2023-01-01T09:16:18;4.65;;;1.17;;
8532;SDS011;4304;53.876;10.662;2023-01-01T09:18:44;2.10;;;1.13;;
8532;SDS011;4304;53.876;10.662;2023-01-01T09:21:09;3.25;;;1.08;;
8532;SDS011;4304;53.876;10.662;2023-01-01T09:23:35;2.78;;;1.10;;
8532;SDS011;4304;53.876;10.662;2023-01-01T09:26:03;2.75;;;1.20;;
8532;SDS011;4304;53.876;10.662;2023-01-01T09:28:30;5.38;;;0.85;;
8532;SDS011;4304;53.876;10.662;2023-01-01T09:30:56;1.02;;;0.82;;
8532;SDS011;4304;53.876;10.662;2023-01-01T09:35:50;2.78;;;1.23;;
8532;SDS011;4304;53.876;10.662;2023-01-01T09:38:15;4.95;;;1.20;;
8532;SDS011;4304;53.876;10.662;2023-01-01T09:40:45;3.83;;;0.90;;
8532;SDS011;4304;53.876;10.662;2023-01-01T09:46:11;4.53;;;1.10;;
8532;SDS011;4304;53.876;10.662;2023-01-01T09:48:38;3.47;;;0.98;;
8532;SDS011;4304;53.876;10.662;2023-01-01T09:51:12;1.48;;;0.65;;
8532;SDS011;4304;53.876;10.662;2023-01-01T09:57:13;1.35;;;0.82;;
8532;SDS011;4304;53.876;10.662;2023-01-01T09:59:39;1.42;;;0.95;;
8532;SDS011;4304;53.876;10.662;2023-01-01T10:04:48;3.60;;;0.90;;
8532;SDS011;4304;53.876;10.662;2023-01-01T10:12:57;1.80;;;1.05;;
8532;SDS011;4304;53.876;10.662;2023-01-01T10:15:26;7.47;;;1.17;;
8532;SDS011;4304;53.876;10.662;2023-01-01T10:17:59;2.85;;;1.13;;
8532;SDS011;4304;53.876;10.662;2023-01-01T10:20:48;1.75;;;0.85;;
8532;SDS011;4304;53.876;10.662;2023-01-01T10:23:30;2.13;;;0.70;;
8532;SDS011;4304;53.876;10.662;2023-01-01T10:26:01;3.92;;;1.17;;
8532;SDS011;4304;53.876;10.662;2023-01-01T10:28:49;4.55;;;1.00;;
8532;SDS011;4304;53.876;10.662;2023-01-01T10:31:33;3.38;;;1.10;;
8532;SDS011;4304;53.876;10.662;2023-01-01T10:34:10;1.75;;;0.80;;
8532;SDS011;4304;53.876;10.662;2023-01-01T10:36:40;1.85;;;0.80;;
8532;SDS011;4304;53.876;10.662;2023-01-01T10:39:13;3.42;;;0.95;;
8532;SDS011;4304;53.876;10.662;2023-01-01T10:41:40;5.53;;;1.23;;
8532;SDS011;4304;53.876;10.662;2023-01-01T10:44:06;1.38;;;0.95;;
8532;SDS011;4304;53.876;10.662;2023-01-01T10:46:31;3.00;;;1.52;;
8532;SDS011;4304;53.876;10.662;2023-01-01T10:49:05;3.90;;;1.10;;
8532;SDS011;4304;53.876;10.662;2023-01-01T10:51:35;2.53;;;1.00;;
8532;SDS011;4304;53.876;10.662;2023-01-01T10:54:01;3.83;;;0.77;;
8532;SDS011;4304;53.876;10.662;2023-01-01T10:56:37;4.35;;;1.00;;
8532;SDS011;4304;53.876;10.662;2023-01-01T10:59:07;3.10;;;0.90;;
8532;SDS011;4304;53.876;10.662;2023-01-01T11:02:20;3.25;;;0.80;;
8532;SDS011;4304;53.876;10.662;2023-01-01T11:04:50;6.07;;;1.13;;
8532;SDS011;4304;53.876;10.662;2023-01-01T11:09:46;4.03;;;1.15;;
8532;SDS011;4304;53.876;10.662;2023-01-01T11:12:21;5.10;;;1.10;;
8532;SDS011;4304;53.876;10.662;2023-01-01T11:14:53;3.15;;;0.93;;
8532;SDS011;4304;53.876;10.662;2023-01-01T11:17:24;1.90;;;0.70;;
8532;SDS011;4304;53.876;10.662;2023-01-01T11:19:52;3.83;;;1.00;;
8532;SDS011;4304;53.876;10.662;2023-01-01T11:25:27;4.93;;;1.35;;
8532;SDS011;4304;53.876;10.662;2023-01-01T11:30:40;1.83;;;0.73;;
8532;SDS011;4304;53.876;10.662;2023-01-01T11:35:53;5.05;;;1.10;;
8532;SDS011;4304;53.876;10.662;2023-01-01T11:38:27;2.88;;;0.85;;
8532;SDS011;4304;53.876;10.662;2023-01-01T11:40:55;1.50;;;1.00;;
8532;SDS011;4304;53.876;10.662;2023-01-01T11:43:29;6.57;;;1.40;;
8532;SDS011;4304;53.876;10.662;2023-01-01T11:46:08;4.30;;;1.52;;
8532;SDS011;4304;53.876;10.662;2023-01-01T11:48:42;3.95;;;1.08;;
8532;SDS011;4304;53.876;10.662;2023-01-01T11:51:25;1.52;;;0.70;;
8532;SDS011;4304;53.876;10.662;2023-01-01T11:56:57;2.28;;;0.73;;
8532;SDS011;4304;53.876;10.662;2023-01-01T11:59:45;4.78;;;1.10;;
8532;SDS011;4304;53.876;10.662;2023-01-01T12:02:17;2.38;;;0.90;;
8532;SDS011;4304;53.876;10.662;2023-01-01T12:05:05;2.08;;;0.95;;
8532;SDS011;4304;53.876;10.662;2023-01-01T12:07:45;1.27;;;0.85;;
8532;SDS011;4304;53.876;10.662;2023-01-01T12:10:18;3.70;;;0.90;;
8532;SDS011;4304;53.876;10.662;2023-01-01T12:13:06;1.33;;;0.77;;
8532;SDS011;4304;53.876;10.662;2023-01-01T12:18:41;3.65;;;1.10;;
8532;SDS011;4304;53.876;10.662;2023-01-01T12:23:43;2.72;;;0.90;;
8532;SDS011;4304;53.876;10.662;2023-01-01T12:26:14;2.80;;;1.08;;
8532;SDS011;4304;53.876;10.662;2023-01-01T12:31:50;4.25;;;1.05;;
8532;SDS011;4304;53.876;10.662;2023-01-01T12:37:31;5.07;;;1.73;;
8532;SDS011;4304;53.876;10.662;2023-01-01T12:43:10;6.60;;;1.38;;
8532;SDS011;4304;53.876;10.662;2023-01-01T12:57:02;4.32;;;1.45;;
8532;SDS011;4304;53.876;10.662;2023-01-01T12:59:44;3.75;;;1.00;;
8532;SDS011;4304;53.876;10.662;2023-01-01T13:02:23;4.93;;;1.35;;
8532;SDS011;4304;53.876;10.662;2023-01-01T13:04:52;4.45;;;1.30;;
8532;SDS011;4304;53.876;10.662;2023-01-01T13:07:26;5.18;;;1.42;;
8532;SDS011;4304;53.876;10.662;2023-01-01T13:10:09;8.68;;;1.60;;
8532;SDS011;4304;53.876;10.662;2023-01-01T13:12:56;1.80;;;1.00;;
8532;SDS011;4304;53.876;10.662;2023-01-01T13:15:34;4.85;;;0.90;;
8532;SDS011;4304;53.876;10.662;2023-01-01T13:18:04;4.53;;;1.10;;
8532;SDS011;4304;53.876;10.662;2023-01-01T13:20:32;4.70;;;1.38;;
8532;SDS011;4304;53.876;10.662;2023-01-01T13:23:03;3.50;;;1.10;;
8532;SDS011;4304;53.876;10.662;2023-01-01T13:25:28;2.22;;;1.00;;
8532;SDS011;4304;53.876;10.662;2023-01-01T14:03:45;4.38;;;1.02;;
8532;SDS011;4304;53.876;10.662;2023-01-01T14:06:27;7.93;;;1.45;;
8532;SDS011;4304;53.876;10.662;2023-01-01T14:09:12;5.03;;;0.98;;
8532;SDS011;4304;53.876;10.662;2023-01-01T14:11:39;4.95;;;0.93;;
8532;SDS011;4304;53.876;10.662;2023-01-01T14:14:18;3.22;;;1.10;;
8532;SDS011;4304;53.876;10.662;2023-01-01T14:16:51;5.13;;;1.55;;
8532;SDS011;4304;53.876;10.662;2023-01-01T14:19:24;5.90;;;1.13;;
8532;SDS011;4304;53.876;10.662;2023-01-01T14:21:51;3.95;;;1.10;;
8532;SDS011;4304;53.876;10.662;2023-01-01T14:24:17;7.95;;;1.40;;
8532;SDS011;4304;53.876;10.662;2023-01-01T14:26:45;5.57;;;1.17;;
8532;SDS011;4304;53.876;10.662;2023-01-01T14:29:23;5.53;;;1.73;;
8532;SDS011;4304;53.876;10.662;2023-01-01T14:31:52;12.77;;;1.58;;
8532;SDS011;4304;53.876;10.662;2023-01-01T14:34:30;4.22;;;1.67;;
8532;SDS011;4304;53.876;10.662;2023-01-01T14:37:01;5.70;;;1.80;;
8532;SDS011;4304;53.876;10.662;2023-01-01T14:39:29;6.18;;;1.88;;
8532;SDS011;4304;53.876;10.662;2023-01-01T14:42:11;5.45;;;1.88;;
8532;SDS011;4304;53.876;10.662;2023-01-01T14:44:42;5.97;;;2.17;;
8532;SDS011;4304;53.876;10.662;2023-01-01T14:47:52;3.97;;;1.50;;
8532;SDS011;4304;53.876;10.662;2023-01-01T14:50:43;4.25;;;1.50;;
8532;SDS011;4304;53.876;10.662;2023-01-01T14:52:52;10.20;;;1.75;;
8532;SDS011;4304;53.876;10.662;2023-01-01T14:55:43;10.30;;;1.90;;
8532;SDS011;4304;53.876;10.662;2023-01-01T14:58:21;6.68;;;2.10;;
8532;SDS011;4304;53.876;10.662;2023-01-01T15:00:50;9.90;;;1.60;;
8532;SDS011;4304;53.876;10.662;2023-01-01T15:03:18;7.93;;;2.22;;
8532;SDS011;4304;53.876;10.662;2023-01-01T15:06:03;4.93;;;1.30;;
8532;SDS011;4304;53.876;10.662;2023-01-01T15:08:34;7.00;;;1.90;;
8532;SDS011;4304;53.876;10.662;2023-01-01T15:11:01;2.78;;;1.05;;
8532;SDS011;4304;53.876;10.662;2023-01-01T15:13:27;10.65;;;1.58;;
8532;SDS011;4304;53.876;10.662;2023-01-01T15:18:56;7.60;;;1.50;;
8532;SDS011;4304;53.876;10.662;2023-01-01T15:21:34;6.78;;;1.83;;
8532;SDS011;4304;53.876;10.662;2023-01-01T15:24:03;8.57;;;1.92;;
8532;SDS011;4304;53.876;10.662;2023-01-01T15:26:51;6.72;;;1.75;;
8532;SDS011;4304;53.876;10.662;2023-01-01T15:29:37;4.28;;;1.70;;
8532;SDS011;4304;53.876;10.662;2023-01-01T15:32:07;4.80;;;1.60;;
8532;SDS011;4304;53.876;10.662;2023-01-01T15:37:30;4.55;;;1.40;;
8532;SDS011;4304;53.876;10.662;2023-01-01T15:40:28;4.43;;;1.30;;
8532;SDS011;4304;53.876;10.662;2023-01-01T15:45:22;4.15;;;1.50;;
8532;SDS011;4304;53.876;10.662;2023-01-01T15:47:52;6.50;;;1.63;;
8532;SDS011;4304;53.876;10.662;2023-01-01T15:55:57;4.68;;;1.48;;
8532;SDS011;4304;53.876;10.662;2023-01-01T16:01:28;6.10;;;2.03;;
8532;SDS011;4304;53.876;10.662;2023-01-01T16:06:31;7.07;;;1.70;;
8532;SDS011;4304;53.876;10.662;2023-01-01T16:09:04;6.43;;;1.90;;
8532;SDS011;4304;53.876;10.662;2023-01-01T16:11:30;6.82;;;1.83;;
8532;SDS011;4304;53.876;10.662;2023-01-01T16:13:55;3.63;;;1.33;;
8532;SDS011;4304;53.876;10.662;2023-01-01T16:18:54;8.10;;;1.73;;
8532;SDS011;4304;53.876;10.662;2023-01-01T16:21:20;5.65;;;1.25;;
8532;SDS011;4304;53.876;10.662;2023-01-01T16:23:53;6.80;;;1.85;;
8532;SDS011;4304;53.876;10.662;2023-01-01T16:28:49;12.15;;;3.15;;
8532;SDS011;4304;53.876;10.662;2023-01-01T16:31:15;8.63;;;1.92;;
8532;SDS011;4304;53.876;10.662;2023-01-01T16:33:44;6.50;;;2.10;;
8532;SDS011;4304;53.876;10.662;2023-01-01T16:36:12;9.68;;;2.53;;
8532;SDS011;4304;53.876;10.662;2023-01-01T16:38:37;8.25;;;2.63;;
8532;SDS011;4304;53.876;10.662;2023-01-01T16:41:02;6.72;;;2.25;;
8532;SDS011;4304;53.876;10.662;2023-01-01T16:43:31;8.70;;;2.55;;
8532;SDS011;4304;53.876;10.662;2023-01-01T16:45:56;5.30;;;2.38;;
8532;SDS011;4304;53.876;10.662;2023-01-01T16:48:21;10.90;;;1.92;;
8532;SDS011;4304;53.876;10.662;2023-01-01T16:50:49;4.05;;;1.73;;
8532;SDS011;4304;53.876;10.662;2023-01-01T16:53:14;8.18;;;1.50;;
8532;SDS011;4304;53.876;10.662;2023-01-01T16:55:40;4.30;;;1.63;;
8532;SDS011;4304;53.876;10.662;2023-01-01T16:58:19;7.07;;;2.22;;
8532;SDS011;4304;53.876;10.662;2023-01-01T17:00:45;4.70;;;1.65;;
8532;SDS011;4304;53.876;10.662;2023-01-01T17:03:11;7.93;;;2.22;;
8532;SDS011;4304;53.876;10.662;2023-01-01T17:05:39;7.95;;;2.40;;
8532;SDS011;4304;53.876;10.662;2023-01-01T17:08:08;9.63;;;1.80;;
8532;SDS011;4304;53.876;10.662;2023-01-01T17:10:33;5.07;;;1.58;;
8532;SDS011;4304;53.876;10.662;2023-01-01T17:12:59;8.90;;;1.77;;
8532;SDS011;4304;53.876;10.662;2023-01-01T17:15:25;5.30;;;2.00;;
8532;SDS011;4304;53.876;10.662;2023-01-01T17:17:53;9.77;;;2.25;;
8532;SDS011;4304;53.876;10.662;2023-01-01T17:20:20;6.53;;;2.97;;
8532;SDS011;4304;53.876;10.662;2023-01-01T17:22:47;34.53;;;9.73;;
8532;SDS011;4304;53.876;10.662;2023-01-01T17:27:50;20.33;;;9.75;;
8532;SDS011;4304;53.876;10.662;2023-01-01T17:30:15;14.85;;;6.47;;
8532;SDS011;4304;53.876;10.662;2023-01-01T17:32:41;13.13;;;3.40;;
8532;SDS011;4304;53.876;10.662;2023-01-01T17:35:07;10.60;;;4.00;;
8532;SDS011;4304;53.876;10.662;2023-01-01T17:37:33;11.32;;;3.42;;
8532;SDS011;4304;53.876;10.662;2023-01-01T17:40:11;9.60;;;2.53;;
8532;SDS011;4304;53.876;10.662;2023-01-01T17:42:38;5.03;;;3.00;;
8532;SDS011;4304;53.876;10.662;2023-01-01T17:45:06;9.20;;;2.95;;
8532;SDS011;4304;53.876;10.662;2023-01-01T17:47:34;7.78;;;2.88;;
8532;SDS011;4304;53.876;10.662;2023-01-01T17:50:00;8.60;;;4.03;;
8532;SDS011;4304;53.876;10.662;2023-01-01T17:52:27;6.35;;;2.97;;
8532;SDS011;4304;53.876;10.662;2023-01-01T17:54:53;8.30;;;2.85;;
8532;SDS011;4304;53.876;10.662;2023-01-01T17:57:18;8.80;;;2.70;;
8532;SDS011;4304;53.876;10.662;2023-01-01T17:59:43;11.60;;;2.90;;
8532;SDS011;4304;53.876;10.662;2023-01-01T18:02:11;4.85;;;2.20;;